sensor_id;sensor_type;location;lat;lon;timestamp;P1;durP1;ratioP1;P2;durP2;ratioP2
60917;SDS011;46792;38.854;-9.384;2023-06-22T00:00:27;12.57;;;7.57;;
60917;SDS011;46792;38.854;-9.384;2023-06-22T00:02:28;14.57;;;7.65;;
60917;SDS011;46792;38.854;-9.384;2023-06-22T00:04:28;17.27;;;6.43;;
60917;SDS011;46792;38.854;-9.384;2023-06-22T00:06:29;12.50;;;6.68;;
60917;SDS011;46792;38.854;-9.384;2023-06-22T00:08:29;18.00;;;7.07;;
60917;SDS011;46792;38.854;-9.384;2023-06-22T00:10:30;15.18;;;6.60;;
60917;SDS011;46792;38.854;-9.384;2023-06-22T00:12:31;20.33;;;6.95;;
60917;SDS011;46792;38.854;-9.384;2023-06-22T00:14:34;14.03;;;6.43;;
60917;SDS011;46792;38.854;-9.384;2023-06-22T00:19:14;10.70;;;5.93;;
60917;SDS011;46792;38.854;-9.384;2023-06-22T00:21:15;11.70;;;6.60;;
60917;SDS011;46792;38.854;-9.384;2023-06-22T00:23:16;10.20;;;6.57;;
60917;SDS011;46792;38.854;-9.384;2023-06-22T00:25:17;14.50;;;6.93;;
60917;SDS011;46792;38.854;-9.384;2023-06-22T00:27:18;11.60;;;5.75;;
60917;SDS011;46792;38.854;-9.384;2023-06-22T00:29:18;16.42;;;5.65;;
60917;SDS011;46792;38.854;-9.384;2023-06-22T00:31:19;14.07;;;6.38;;
60917;SDS011;46792;38.854;-9.384;2023-06-22T00:33:19;11.45;;;6.38;;
60917;SDS011;46792;38.854;-9.384;2023-06-22T00:35:20;20.52;;;7.20;;
60917;SDS011;46792;38.854;-9.384;2023-06-22T00:37:42;16.70;;;5.93;;
60917;SDS011;46792;38.854;-9.384;2023-06-22T00:39:43;14.48;;;7.35;;
60917;SDS011;46792;38.854;-9.384;2023-06-22T00:41:44;9.90;;;6.03;;
60917;SDS011;46792;38.854;-9.384;2023-06-22T00:43:44;19.35;;;6.20;;
60917;SDS011;46792;38.854;-9.384;2023-06-22T00:45:45;14.48;;;6.78;;
60917;SDS011;46792;38.854;-9.384;2023-06-22T00:47:46;20.40;;;6.50;;
60917;SDS011;46792;38.854;-9.384;2023-06-22T00:50:06;15.65;;;6.53;;
60917;SDS011;46792;38.854;-9.384;2023-06-22T00:52:07;15.15;;;6.13;;
60917;SDS011;46792;38.854;-9.384;2023-06-22T00:54:09;14.30;;;6.55;;
60917;SDS011;46792;38.854;-9.384;2023-06-22T00:56:12;9.18;;;5.90;;
60917;SDS011;46792;38.854;-9.384;2023-06-22T00:58:13;22.73;;;6.43;;
60917;SDS011;46792;38.854;-9.384;2023-06-22T01:00:36;11.27;;;6.63;;
60917;SDS011;46792;38.854;-9.384;2023-06-22T01:02:37;10.82;;;6.53;;
60917;SDS011;46792;38.854;-9.384;2023-06-22T01:04:57;10.65;;;5.97;;
60917;SDS011;46792;38.854;-9.384;2023-06-22T01:07:05;15.70;;;5.60;;
60917;SDS011;46792;38.854;-9.384;2023-06-22T01:09:28;12.35;;;6.18;;
60917;SDS011;46792;38.854;-9.384;2023-06-22T01:11:36;13.43;;;6.45;;
60917;SDS011;46792;38.854;-9.384;2023-06-22T01:13:49;15.18;;;6.53;;
60917;SDS011;46792;38.854;-9.384;2023-06-22T01:16:02;10.40;;;6.25;;
60917;SDS011;46792;38.854;-9.384;2023-06-22T01:18:05;16.35;;;6.30;;
60917;SDS011;46792;38.854;-9.384;2023-06-22T01:22:14;13.93;;;5.68;;
60917;SDS011;46792;38.854;-9.384;2023-06-22T01:26:42;13.43;;;5.53;;
60917;SDS011;46792;38.854;-9.384;2023-06-22T01:28:54;9.98;;;5.70;;
60917;SDS011;46792;38.854;-9.384;2023-06-22T01:30:57;13.35;;;6.45;;
60917;SDS011;46792;38.854;-9.384;2023-06-22T01:33:24;13.45;;;6.00;;
60917;SDS011;46792;38.854;-9.384;2023-06-22T01:35:25;14.77;;;7.03;;
60917;SDS011;46792;38.854;-9.384;2023-06-22T01:37:27;20.85;;;6.88;;
60917;SDS011;46792;38.854;-9.384;2023-06-22T01:39:46;14.13;;;6.40;;
60917;SDS011;46792;38.854;-9.384;2023-06-22T01:41:49;18.15;;;6.65;;
60917;SDS011;46792;38.854;-9.384;2023-06-22T01:43:50;11.73;;;6.25;;
60917;SDS011;46792;38.854;-9.384;2023-06-22T01:45:54;14.82;;;6.15;;
60917;SDS011;46792;38.854;-9.384;2023-06-22T01:47:56;18.38;;;6.38;;
60917;SDS011;46792;38.854;-9.384;2023-06-22T01:55:13;11.95;;;7.15;;
60917;SDS011;46792;38.854;-9.384;2023-06-22T01:57:14;8.82;;;6.13;;
60917;SDS011;46792;38.854;-9.384;2023-06-22T01:59:19;17.63;;;7.32;;
60917;SDS011;46792;38.854;-9.384;2023-06-22T02:01:40;25.25;;;7.30;;
60917;SDS011;46792;38.854;-9.384;2023-06-22T02:03:46;12.25;;;6.63;;
60917;SDS011;46792;38.854;-9.384;2023-06-22T02:06:04;18.33;;;7.15;;
60917;SDS011;46792;38.854;-9.384;2023-06-22T02:08:30;14.32;;;6.75;;
60917;SDS011;46792;38.854;-9.384;2023-06-22T02:10:56;16.15;;;6.47;;
60917;SDS011;46792;38.854;-9.384;2023-06-22T02:12:59;16.95;;;7.07;;
60917;SDS011;46792;38.854;-9.384;2023-06-22T02:15:19;14.60;;;6.50;;
60917;SDS011;46792;38.854;-9.384;2023-06-22T02:17:39;17.10;;;7.22;;
60917;SDS011;46792;38.854;-9.384;2023-06-22T02:19:45;15.40;;;6.43;;
60917;SDS011;46792;38.854;-9.384;2023-06-22T02:21:45;26.83;;;6.82;;
60917;SDS011;46792;38.854;-9.384;2023-06-22T02:23:47;14.38;;;6.22;;
60917;SDS011;46792;38.854;-9.384;2023-06-22T02:28:27;13.52;;;7.57;;
60917;SDS011;46792;38.854;-9.384;2023-06-22T02:30:28;18.40;;;6.85;;
60917;SDS011;46792;38.854;-9.384;2023-06-22T02:32:29;12.80;;;6.40;;
60917;SDS011;46792;38.854;-9.384;2023-06-22T02:37:21;13.25;;;6.38;;
60917;SDS011;46792;38.854;-9.384;2023-06-22T02:39:25;15.82;;;6.88;;
60917;SDS011;46792;38.854;-9.384;2023-06-22T02:41:26;12.82;;;7.00;;
60917;SDS011;46792;38.854;-9.384;2023-06-22T02:43:30;14.73;;;6.97;;
60917;SDS011;46792;38.854;-9.384;2023-06-22T02:45:49;17.40;;;6.80;;
60917;SDS011;46792;38.854;-9.384;2023-06-22T02:53:25;15.38;;;6.40;;
60917;SDS011;46792;38.854;-9.384;2023-06-22T02:55:26;13.60;;;6.53;;
60917;SDS011;46792;38.854;-9.384;2023-06-22T02:57:30;8.15;;;5.47;;
60917;SDS011;46792;38.854;-9.384;2023-06-22T03:02:31;13.55;;;6.18;;
60917;SDS011;46792;38.854;-9.384;2023-06-22T03:04:53;13.75;;;6.47;;
60917;SDS011;46792;38.854;-9.384;2023-06-22T03:06:54;16.48;;;7.03;;
60917;SDS011;46792;38.854;-9.384;2023-06-22T03:08:59;14.15;;;6.35;;
60917;SDS011;46792;38.854;-9.384;2023-06-22T03:11:02;16.08;;;6.43;;
60917;SDS011;46792;38.854;-9.384;2023-06-22T03:13:21;10.35;;;6.53;;
60917;SDS011;46792;38.854;-9.384;2023-06-22T03:15:22;15.05;;;6.22;;
60917;SDS011;46792;38.854;-9.384;2023-06-22T03:17:23;17.80;;;6.45;;
60917;SDS011;46792;38.854;-9.384;2023-06-22T03:19:23;12.50;;;7.07;;
60917;SDS011;46792;38.854;-9.384;2023-06-22T03:21:26;10.88;;;7.13;;
60917;SDS011;46792;38.854;-9.384;2023-06-22T03:23:28;21.45;;;6.78;;
60917;SDS011;46792;38.854;-9.384;2023-06-22T03:25:29;15.77;;;8.18;;
60917;SDS011;46792;38.854;-9.384;2023-06-22T03:27:30;19.23;;;6.30;;
60917;SDS011;46792;38.854;-9.384;2023-06-22T03:29:31;14.43;;;7.20;;
60917;SDS011;46792;38.854;-9.384;2023-06-22T03:38:51;18.70;;;7.35;;
60917;SDS011;46792;38.854;-9.384;2023-06-22T03:40:52;18.63;;;7.05;;
60917;SDS011;46792;38.854;-9.384;2023-06-22T03:48:45;12.15;;;6.95;;
60917;SDS011;46792;38.854;-9.384;2023-06-22T03:50:46;22.35;;;6.82;;
60917;SDS011;46792;38.854;-9.384;2023-06-22T03:52:47;24.83;;;7.30;;
60917;SDS011;46792;38.854;-9.384;2023-06-22T03:54:47;15.40;;;7.43;;
60917;SDS011;46792;38.854;-9.384;2023-06-22T03:57:06;16.45;;;7.88;;
60917;SDS011;46792;38.854;-9.384;2023-06-22T03:59:07;20.35;;;7.60;;
60917;SDS011;46792;38.854;-9.384;2023-06-22T04:01:26;20.27;;;6.65;;
60917;SDS011;46792;38.854;-9.384;2023-06-22T04:03:45;15.23;;;8.05;;
60917;SDS011;46792;38.854;-9.384;2023-06-22T04:05:48;18.92;;;8.15;;
60917;SDS011;46792;38.854;-9.384;2023-06-22T04:07:48;14.40;;;7.55;;
60917;SDS011;46792;38.854;-9.384;2023-06-22T04:09:49;10.65;;;7.18;;
60917;SDS011;46792;38.854;-9.384;2023-06-22T04:11:50;13.13;;;7.22;;
60917;SDS011;46792;38.854;-9.384;2023-06-22T04:13:50;18.17;;;6.78;;
60917;SDS011;46792;38.854;-9.384;2023-06-22T04:15:51;15.77;;;7.78;;
60917;SDS011;46792;38.854;-9.384;2023-06-22T04:18:10;13.50;;;6.97;;
60917;SDS011;46792;38.854;-9.384;2023-06-22T04:20:30;16.90;;;7.03;;
60917;SDS011;46792;38.854;-9.384;2023-06-22T04:22:34;12.77;;;6.68;;
60917;SDS011;46792;38.854;-9.384;2023-06-22T04:24:35;14.57;;;6.47;;
60917;SDS011;46792;38.854;-9.384;2023-06-22T04:34:13;16.67;;;7.10;;
60917;SDS011;46792;38.854;-9.384;2023-06-22T04:44:00;13.60;;;7.18;;
60917;SDS011;46792;38.854;-9.384;2023-06-22T04:46:19;15.25;;;7.25;;
60917;SDS011;46792;38.854;-9.384;2023-06-22T04:50:58;13.43;;;7.38;;
60917;SDS011;46792;38.854;-9.384;2023-06-22T04:53:03;12.60;;;6.65;;
60917;SDS011;46792;38.854;-9.384;2023-06-22T04:55:05;14.23;;;7.13;;
60917;SDS011;46792;38.854;-9.384;2023-06-22T04:57:44;13.45;;;7.25;;
60917;SDS011;46792;38.854;-9.384;2023-06-22T05:00:07;11.10;;;6.88;;
60917;SDS011;46792;38.854;-9.384;2023-06-22T05:02:17;10.82;;;6.78;;
60917;SDS011;46792;38.854;-9.384;2023-06-22T05:04:17;12.27;;;6.22;;
60917;SDS011;46792;38.854;-9.384;2023-06-22T05:06:18;20.30;;;7.18;;
60917;SDS011;46792;38.854;-9.384;2023-06-22T05:08:19;12.93;;;6.85;;
60917;SDS011;46792;38.854;-9.384;2023-06-22T05:15:36;15.25;;;6.47;;
60917;SDS011;46792;38.854;-9.384;2023-06-22T05:17:40;17.10;;;7.38;;
60917;SDS011;46792;38.854;-9.384;2023-06-22T05:19:42;25.98;;;6.90;;
60917;SDS011;46792;38.854;-9.384;2023-06-22T05:21:45;13.93;;;7.53;;
60917;SDS011;46792;38.854;-9.384;2023-06-22T05:23:46;17.23;;;7.18;;
60917;SDS011;46792;38.854;-9.384;2023-06-22T05:25:46;16.15;;;6.45;;
60917;SDS011;46792;38.854;-9.384;2023-06-22T05:27:47;14.15;;;7.22;;
60917;SDS011;46792;38.854;-9.384;2023-06-22T05:29:47;18.33;;;7.95;;
60917;SDS011;46792;38.854;-9.384;2023-06-22T05:31:48;12.32;;;6.85;;
60917;SDS011;46792;38.854;-9.384;2023-06-22T05:34:08;23.17;;;7.10;;
60917;SDS011;46792;38.854;-9.384;2023-06-22T05:36:27;17.52;;;7.15;;
60917;SDS011;46792;38.854;-9.384;2023-06-22T05:38:27;12.27;;;6.82;;
60917;SDS011;46792;38.854;-9.384;2023-06-22T05:40:28;15.48;;;6.63;;
60917;SDS011;46792;38.854;-9.384;2023-06-22T05:42:29;15.23;;;7.93;;
60917;SDS011;46792;38.854;-9.384;2023-06-22T05:44:29;13.27;;;7.18;;
60917;SDS011;46792;38.854;-9.384;2023-06-22T05:46:30;21.40;;;7.72;;
60917;SDS011;46792;38.854;-9.384;2023-06-22T05:48:49;16.58;;;7.18;;
60917;SDS011;46792;38.854;-9.384;2023-06-22T05:50:49;11.63;;;7.82;;
60917;SDS011;46792;38.854;-9.384;2023-06-22T05:52:50;12.32;;;7.70;;
60917;SDS011;46792;38.854;-9.384;2023-06-22T05:55:09;13.98;;;7.38;;
60917;SDS011;46792;38.854;-9.384;2023-06-22T05:57:10;14.07;;;7.10;;
60917;SDS011;46792;38.854;-9.384;2023-06-22T06:01:29;17.40;;;8.20;;
60917;SDS011;46792;38.854;-9.384;2023-06-22T06:03:34;16.85;;;7.82;;
60917;SDS011;46792;38.854;-9.384;2023-06-22T06:05:41;19.80;;;8.43;;
60917;SDS011;46792;38.854;-9.384;2023-06-22T06:07:42;17.65;;;8.95;;
60917;SDS011;46792;38.854;-9.384;2023-06-22T06:09:48;31.55;;;9.23;;
60917;SDS011;46792;38.854;-9.384;2023-06-22T06:11:49;19.73;;;9.10;;
60917;SDS011;46792;38.854;-9.384;2023-06-22T06:13:49;26.38;;;8.40;;
60917;SDS011;46792;38.854;-9.384;2023-06-22T06:21:08;12.95;;;8.05;;
60917;SDS011;46792;38.854;-9.384;2023-06-22T06:23:27;18.75;;;7.90;;
60917;SDS011;46792;38.854;-9.384;2023-06-22T06:25:28;17.30;;;8.57;;
60917;SDS011;46792;38.854;-9.384;2023-06-22T06:27:28;29.80;;;8.98;;
60917;SDS011;46792;38.854;-9.384;2023-06-22T06:29:30;20.98;;;9.20;;
60917;SDS011;46792;38.854;-9.384;2023-06-22T06:31:31;16.17;;;8.35;;
60917;SDS011;46792;38.854;-9.384;2023-06-22T06:33:31;22.58;;;8.82;;
60917;SDS011;46792;38.854;-9.384;2023-06-22T06:35:32;18.23;;;8.23;;
60917;SDS011;46792;38.854;-9.384;2023-06-22T06:37:51;17.05;;;7.35;;
60917;SDS011;46792;38.854;-9.384;2023-06-22T06:39:51;22.15;;;8.18;;
60917;SDS011;46792;38.854;-9.384;2023-06-22T06:41:52;22.77;;;8.18;;
60917;SDS011;46792;38.854;-9.384;2023-06-22T06:46:50;14.48;;;7.80;;
60917;SDS011;46792;38.854;-9.384;2023-06-22T06:48:50;16.27;;;7.65;;
60917;SDS011;46792;38.854;-9.384;2023-06-22T06:50:51;19.83;;;8.73;;
60917;SDS011;46792;38.854;-9.384;2023-06-22T06:52:51;21.17;;;8.13;;
60917;SDS011;46792;38.854;-9.384;2023-06-22T06:54:52;20.35;;;7.60;;
60917;SDS011;46792;38.854;-9.384;2023-06-22T06:56:53;23.58;;;8.55;;
60917;SDS011;46792;38.854;-9.384;2023-06-22T06:58:53;16.20;;;7.78;;
60917;SDS011;46792;38.854;-9.384;2023-06-22T07:01:12;23.63;;;7.68;;
60917;SDS011;46792;38.854;-9.384;2023-06-22T07:03:32;18.77;;;7.72;;
60917;SDS011;46792;38.854;-9.384;2023-06-22T07:05:33;17.67;;;7.38;;
60917;SDS011;46792;38.854;-9.384;2023-06-22T07:07:34;14.82;;;6.65;;
60917;SDS011;46792;38.854;-9.384;2023-06-22T07:09:53;16.30;;;7.38;;
60917;SDS011;46792;38.854;-9.384;2023-06-22T07:11:54;20.40;;;8.35;;
60917;SDS011;46792;38.854;-9.384;2023-06-22T07:16:32;29.58;;;7.57;;
60917;SDS011;46792;38.854;-9.384;2023-06-22T07:18:33;17.70;;;7.18;;
60917;SDS011;46792;38.854;-9.384;2023-06-22T07:20:52;12.82;;;6.25;;
60917;SDS011;46792;38.854;-9.384;2023-06-22T07:23:11;13.57;;;5.85;;
60917;SDS011;46792;38.854;-9.384;2023-06-22T07:25:12;19.45;;;6.97;;
60917;SDS011;46792;38.854;-9.384;2023-06-22T07:27:17;12.90;;;5.95;;
60917;SDS011;46792;38.854;-9.384;2023-06-22T07:29:19;20.00;;;6.25;;
60917;SDS011;46792;38.854;-9.384;2023-06-22T07:31:24;21.65;;;6.93;;
60917;SDS011;46792;38.854;-9.384;2023-06-22T07:33:25;11.98;;;6.57;;
60917;SDS011;46792;38.854;-9.384;2023-06-22T07:35:26;7.97;;;5.43;;
60917;SDS011;46792;38.854;-9.384;2023-06-22T07:37:26;8.73;;;5.43;;
60917;SDS011;46792;38.854;-9.384;2023-06-22T07:39:28;16.10;;;5.10;;
60917;SDS011;46792;38.854;-9.384;2023-06-22T07:41:47;13.80;;;5.25;;
60917;SDS011;46792;38.854;-9.384;2023-06-22T07:43:50;18.60;;;5.95;;
60917;SDS011;46792;38.854;-9.384;2023-06-22T07:45:51;11.63;;;5.45;;
60917;SDS011;46792;38.854;-9.384;2023-06-22T07:47:55;14.85;;;5.75;;
60917;SDS011;46792;38.854;-9.384;2023-06-22T07:49:57;17.02;;;5.68;;
60917;SDS011;46792;38.854;-9.384;2023-06-22T07:52:01;16.65;;;5.82;;
60917;SDS011;46792;38.854;-9.384;2023-06-22T07:54:20;18.73;;;5.50;;
60917;SDS011;46792;38.854;-9.384;2023-06-22T07:56:21;14.00;;;5.45;;
60917;SDS011;46792;38.854;-9.384;2023-06-22T07:58:40;14.32;;;6.28;;
60917;SDS011;46792;38.854;-9.384;2023-06-22T08:01:00;11.45;;;5.03;;
60917;SDS011;46792;38.854;-9.384;2023-06-22T08:03:00;15.30;;;5.63;;
60917;SDS011;46792;38.854;-9.384;2023-06-22T08:05:03;15.00;;;5.72;;
60917;SDS011;46792;38.854;-9.384;2023-06-22T08:07:05;11.48;;;4.75;;
60917;SDS011;46792;38.854;-9.384;2023-06-22T08:09:05;10.35;;;5.25;;
60917;SDS011;46792;38.854;-9.384;2023-06-22T08:11:25;15.88;;;5.28;;
60917;SDS011;46792;38.854;-9.384;2023-06-22T08:13:25;12.02;;;4.60;;
60917;SDS011;46792;38.854;-9.384;2023-06-22T08:15:26;9.35;;;4.93;;
60917;SDS011;46792;38.854;-9.384;2023-06-22T08:17:27;7.07;;;4.22;;
60917;SDS011;46792;38.854;-9.384;2023-06-22T08:19:27;17.88;;;6.20;;
60917;SDS011;46792;38.854;-9.384;2023-06-22T08:21:46;15.55;;;5.40;;
60917;SDS011;46792;38.854;-9.384;2023-06-22T08:23:47;9.95;;;5.03;;
60917;SDS011;46792;38.854;-9.384;2023-06-22T08:25:48;17.90;;;4.72;;
60917;SDS011;46792;38.854;-9.384;2023-06-22T08:27:50;17.98;;;5.85;;
60917;SDS011;46792;38.854;-9.384;2023-06-22T08:29:51;8.32;;;4.65;;
60917;SDS011;46792;38.854;-9.384;2023-06-22T08:31:54;17.50;;;5.57;;
60917;SDS011;46792;38.854;-9.384;2023-06-22T08:36:51;12.35;;;4.88;;
60917;SDS011;46792;38.854;-9.384;2023-06-22T08:38:52;19.95;;;5.70;;
60917;SDS011;46792;38.854;-9.384;2023-06-22T08:40:54;11.90;;;5.05;;
60917;SDS011;46792;38.854;-9.384;2023-06-22T08:43:13;8.35;;;4.88;;
60917;SDS011;46792;38.854;-9.384;2023-06-22T08:45:15;11.43;;;5.00;;
60917;SDS011;46792;38.854;-9.384;2023-06-22T08:47:16;16.67;;;4.78;;
60917;SDS011;46792;38.854;-9.384;2023-06-22T08:49:16;21.33;;;5.35;;
60917;SDS011;46792;38.854;-9.384;2023-06-22T08:51:17;14.02;;;4.90;;
60917;SDS011;46792;38.854;-9.384;2023-06-22T08:53:18;14.30;;;5.03;;
60917;SDS011;46792;38.854;-9.384;2023-06-22T08:55:18;15.65;;;5.22;;
60917;SDS011;46792;38.854;-9.384;2023-06-22T08:57:19;10.35;;;4.65;;
60917;SDS011;46792;38.854;-9.384;2023-06-22T08:59:21;16.13;;;4.88;;
60917;SDS011;46792;38.854;-9.384;2023-06-22T09:01:21;15.07;;;4.85;;
60917;SDS011;46792;38.854;-9.384;2023-06-22T09:03:22;9.80;;;3.75;;
60917;SDS011;46792;38.854;-9.384;2023-06-22T09:05:26;17.65;;;4.93;;
60917;SDS011;46792;38.854;-9.384;2023-06-22T09:07:46;10.07;;;4.20;;
60917;SDS011;46792;38.854;-9.384;2023-06-22T09:12:06;8.63;;;4.30;;
60917;SDS011;46792;38.854;-9.384;2023-06-22T09:14:08;9.55;;;3.85;;
60917;SDS011;46792;38.854;-9.384;2023-06-22T09:16:09;12.05;;;4.32;;
60917;SDS011;46792;38.854;-9.384;2023-06-22T09:18:10;14.15;;;5.10;;
60917;SDS011;46792;38.854;-9.384;2023-06-22T09:20:27;15.50;;;4.65;;
60917;SDS011;46792;38.854;-9.384;2023-06-22T09:22:28;10.05;;;4.05;;
60917;SDS011;46792;38.854;-9.384;2023-06-22T09:24:29;10.85;;;3.90;;
60917;SDS011;46792;38.854;-9.384;2023-06-22T09:26:30;12.90;;;5.30;;
60917;SDS011;46792;38.854;-9.384;2023-06-22T09:28:30;14.35;;;4.40;;
60917;SDS011;46792;38.854;-9.384;2023-06-22T09:30:31;8.60;;;3.80;;
60917;SDS011;46792;38.854;-9.384;2023-06-22T09:32:32;13.18;;;4.30;;
60917;SDS011;46792;38.854;-9.384;2023-06-22T09:34:32;12.25;;;4.47;;
60917;SDS011;46792;38.854;-9.384;2023-06-22T09:36:33;10.18;;;4.32;;
60917;SDS011;46792;38.854;-9.384;2023-06-22T09:38:47;10.93;;;4.65;;
60917;SDS011;46792;38.854;-9.384;2023-06-22T09:41:10;18.58;;;4.38;;
60917;SDS011;46792;38.854;-9.384;2023-06-22T09:45:12;11.68;;;3.83;;
60917;SDS011;46792;38.854;-9.384;2023-06-22T09:47:15;10.88;;;4.03;;
60917;SDS011;46792;38.854;-9.384;2023-06-22T09:49:16;10.68;;;3.78;;
60917;SDS011;46792;38.854;-9.384;2023-06-22T09:51:17;22.02;;;4.25;;
60917;SDS011;46792;38.854;-9.384;2023-06-22T09:53:19;12.68;;;4.35;;
60917;SDS011;46792;38.854;-9.384;2023-06-22T09:55:20;12.63;;;4.07;;
60917;SDS011;46792;38.854;-9.384;2023-06-22T09:57:21;13.27;;;4.30;;
60917;SDS011;46792;38.854;-9.384;2023-06-22T09:59:21;13.80;;;4.03;;
60917;SDS011;46792;38.854;-9.384;2023-06-22T10:01:22;12.80;;;4.18;;
60917;SDS011;46792;38.854;-9.384;2023-06-22T10:03:23;7.45;;;4.00;;
60917;SDS011;46792;38.854;-9.384;2023-06-22T10:05:24;8.65;;;3.58;;
60917;SDS011;46792;38.854;-9.384;2023-06-22T10:07:25;21.80;;;4.65;;
60917;SDS011;46792;38.854;-9.384;2023-06-22T10:09:25;8.52;;;3.70;;
60917;SDS011;46792;38.854;-9.384;2023-06-22T10:11:26;16.10;;;4.75;;
60917;SDS011;46792;38.854;-9.384;2023-06-22T10:13:30;12.38;;;4.25;;
60917;SDS011;46792;38.854;-9.384;2023-06-22T10:15:30;9.30;;;3.67;;
60917;SDS011;46792;38.854;-9.384;2023-06-22T10:17:31;8.00;;;4.20;;
60917;SDS011;46792;38.854;-9.384;2023-06-22T10:19:32;16.33;;;3.53;;
60917;SDS011;46792;38.854;-9.384;2023-06-22T10:21:32;10.90;;;4.20;;
60917;SDS011;46792;38.854;-9.384;2023-06-22T10:23:33;8.63;;;3.92;;
60917;SDS011;46792;38.854;-9.384;2023-06-22T10:25:34;12.27;;;3.90;;
60917;SDS011;46792;38.854;-9.384;2023-06-22T10:27:35;12.73;;;4.15;;
60917;SDS011;46792;38.854;-9.384;2023-06-22T10:29:36;12.20;;;3.40;;
60917;SDS011;46792;38.854;-9.384;2023-06-22T10:31:36;8.25;;;3.80;;
60917;SDS011;46792;38.854;-9.384;2023-06-22T10:33:37;13.98;;;4.18;;
60917;SDS011;46792;38.854;-9.384;2023-06-22T10:35:37;20.67;;;4.35;;
60917;SDS011;46792;38.854;-9.384;2023-06-22T10:37:38;16.17;;;4.32;;
60917;SDS011;46792;38.854;-9.384;2023-06-22T10:39:58;14.75;;;4.03;;
60917;SDS011;46792;38.854;-9.384;2023-06-22T10:42:17;7.68;;;3.35;;
60917;SDS011;46792;38.854;-9.384;2023-06-22T10:44:21;7.53;;;4.28;;
60917;SDS011;46792;38.854;-9.384;2023-06-22T10:46:21;15.43;;;4.22;;
60917;SDS011;46792;38.854;-9.384;2023-06-22T10:48:22;10.68;;;4.22;;
60917;SDS011;46792;38.854;-9.384;2023-06-22T10:50:23;14.05;;;4.32;;
60917;SDS011;46792;38.854;-9.384;2023-06-22T10:52:24;12.57;;;3.92;;
60917;SDS011;46792;38.854;-9.384;2023-06-22T10:54:25;12.60;;;4.40;;
60917;SDS011;46792;38.854;-9.384;2023-06-22T10:56:45;15.10;;;4.70;;
60917;SDS011;46792;38.854;-9.384;2023-06-22T10:58:45;11.27;;;3.67;;
60917;SDS011;46792;38.854;-9.384;2023-06-22T11:00:46;9.43;;;3.50;;
60917;SDS011;46792;38.854;-9.384;2023-06-22T11:02:47;10.20;;;3.33;;
60917;SDS011;46792;38.854;-9.384;2023-06-22T11:04:47;11.60;;;3.35;;
60917;SDS011;46792;38.854;-9.384;2023-06-22T11:06:48;8.45;;;3.85;;
60917;SDS011;46792;38.854;-9.384;2023-06-22T11:08:49;11.45;;;3.63;;
60917;SDS011;46792;38.854;-9.384;2023-06-22T11:10:51;9.50;;;3.42;;
60917;SDS011;46792;38.854;-9.384;2023-06-22T11:15:29;5.85;;;3.10;;
60917;SDS011;46792;38.854;-9.384;2023-06-22T11:17:29;9.77;;;3.58;;
60917;SDS011;46792;38.854;-9.384;2023-06-22T11:19:30;10.00;;;3.38;;
60917;SDS011;46792;38.854;-9.384;2023-06-22T11:21:31;8.75;;;3.47;;
60917;SDS011;46792;38.854;-9.384;2023-06-22T11:23:32;17.02;;;4.10;;
60917;SDS011;46792;38.854;-9.384;2023-06-22T11:25:33;9.85;;;3.90;;
60917;SDS011;46792;38.854;-9.384;2023-06-22T11:27:38;11.55;;;3.65;;
60917;SDS011;46792;38.854;-9.384;2023-06-22T11:29:57;7.28;;;3.63;;
60917;SDS011;46792;38.854;-9.384;2023-06-22T11:31:58;9.93;;;3.45;;
60917;SDS011;46792;38.854;-9.384;2023-06-22T11:33:58;17.95;;;4.38;;
60917;SDS011;46792;38.854;-9.384;2023-06-22T11:35:59;7.38;;;3.40;;
60917;SDS011;46792;38.854;-9.384;2023-06-22T11:40:57;7.82;;;3.78;;
60917;SDS011;46792;38.854;-9.384;2023-06-22T11:45:17;11.48;;;3.70;;
60917;SDS011;46792;38.854;-9.384;2023-06-22T11:47:19;18.27;;;3.45;;
60917;SDS011;46792;38.854;-9.384;2023-06-22T11:49:19;9.38;;;3.42;;
60917;SDS011;46792;38.854;-9.384;2023-06-22T11:51:20;8.35;;;3.00;;
60917;SDS011;46792;38.854;-9.384;2023-06-22T11:53:21;6.97;;;3.47;;
60917;SDS011;46792;38.854;-9.384;2023-06-22T11:55:24;8.48;;;3.20;;
60917;SDS011;46792;38.854;-9.384;2023-06-22T11:57:24;13.98;;;3.20;;
60917;SDS011;46792;38.854;-9.384;2023-06-22T11:59:25;10.32;;;3.67;;
60917;SDS011;46792;38.854;-9.384;2023-06-22T12:01:26;10.95;;;3.42;;
60917;SDS011;46792;38.854;-9.384;2023-06-22T12:03:27;11.15;;;3.10;;
60917;SDS011;46792;38.854;-9.384;2023-06-22T12:05:27;10.55;;;3.42;;
60917;SDS011;46792;38.854;-9.384;2023-06-22T12:07:28;9.65;;;2.88;;
60917;SDS011;46792;38.854;-9.384;2023-06-22T12:09:29;16.58;;;3.40;;
60917;SDS011;46792;38.854;-9.384;2023-06-22T12:11:29;4.57;;;2.72;;
60917;SDS011;46792;38.854;-9.384;2023-06-22T12:13:30;11.68;;;3.30;;
60917;SDS011;46792;38.854;-9.384;2023-06-22T12:15:30;10.63;;;3.70;;
60917;SDS011;46792;38.854;-9.384;2023-06-22T12:17:50;12.43;;;4.43;;
60917;SDS011;46792;38.854;-9.384;2023-06-22T12:19:50;11.50;;;3.20;;
60917;SDS011;46792;38.854;-9.384;2023-06-22T12:21:51;10.13;;;3.67;;
60917;SDS011;46792;38.854;-9.384;2023-06-22T12:23:51;11.60;;;3.33;;
60917;SDS011;46792;38.854;-9.384;2023-06-22T12:25:52;8.50;;;3.75;;
60917;SDS011;46792;38.854;-9.384;2023-06-22T12:27:52;9.35;;;3.70;;
60917;SDS011;46792;38.854;-9.384;2023-06-22T12:29:54;11.05;;;3.83;;
60917;SDS011;46792;38.854;-9.384;2023-06-22T12:31:54;10.20;;;3.63;;
60917;SDS011;46792;38.854;-9.384;2023-06-22T12:33:55;8.68;;;3.83;;
60917;SDS011;46792;38.854;-9.384;2023-06-22T12:35:56;7.45;;;2.90;;
60917;SDS011;46792;38.854;-9.384;2023-06-22T12:37:56;5.47;;;3.15;;
60917;SDS011;46792;38.854;-9.384;2023-06-22T12:39:57;7.40;;;2.58;;
60917;SDS011;46792;38.854;-9.384;2023-06-22T12:41:59;7.32;;;3.40;;
60917;SDS011;46792;38.854;-9.384;2023-06-22T12:44:00;7.03;;;3.33;;
60917;SDS011;46792;38.854;-9.384;2023-06-22T12:46:00;7.03;;;3.10;;
60917;SDS011;46792;38.854;-9.384;2023-06-22T12:48:01;6.40;;;3.17;;
60917;SDS011;46792;38.854;-9.384;2023-06-22T12:50:02;11.23;;;3.28;;
60917;SDS011;46792;38.854;-9.384;2023-06-22T12:52:08;6.20;;;2.90;;
60917;SDS011;46792;38.854;-9.384;2023-06-22T12:54:10;9.10;;;3.38;;
60917;SDS011;46792;38.854;-9.384;2023-06-22T12:56:11;6.93;;;3.17;;
60917;SDS011;46792;38.854;-9.384;2023-06-22T12:58:12;15.30;;;3.33;;
60917;SDS011;46792;38.854;-9.384;2023-06-22T13:00:12;8.05;;;3.17;;
60917;SDS011;46792;38.854;-9.384;2023-06-22T13:02:13;8.07;;;3.47;;
60917;SDS011;46792;38.854;-9.384;2023-06-22T13:04:14;8.90;;;2.53;;
60917;SDS011;46792;38.854;-9.384;2023-06-22T13:06:15;7.95;;;3.50;;
60917;SDS011;46792;38.854;-9.384;2023-06-22T13:08:15;18.45;;;3.42;;
60917;SDS011;46792;38.854;-9.384;2023-06-22T13:10:16;13.65;;;3.05;;
60917;SDS011;46792;38.854;-9.384;2023-06-22T13:12:17;11.60;;;3.28;;
60917;SDS011;46792;38.854;-9.384;2023-06-22T13:14:18;18.58;;;3.33;;
60917;SDS011;46792;38.854;-9.384;2023-06-22T13:16:21;8.60;;;2.85;;
60917;SDS011;46792;38.854;-9.384;2023-06-22T13:18:22;12.87;;;3.27;;
60917;SDS011;46792;38.854;-9.384;2023-06-22T13:20:22;8.60;;;2.47;;
60917;SDS011;46792;38.854;-9.384;2023-06-22T13:24:28;13.50;;;4.05;;
60917;SDS011;46792;38.854;-9.384;2023-06-22T13:26:28;8.23;;;2.70;;
60917;SDS011;46792;38.854;-9.384;2023-06-22T13:28:48;12.65;;;3.58;;
60917;SDS011;46792;38.854;-9.384;2023-06-22T13:31:07;9.27;;;3.20;;
60917;SDS011;46792;38.854;-9.384;2023-06-22T13:33:08;15.50;;;3.75;;
60917;SDS011;46792;38.854;-9.384;2023-06-22T13:35:09;11.90;;;3.28;;
60917;SDS011;46792;38.854;-9.384;2023-06-22T13:37:10;12.20;;;2.85;;
60917;SDS011;46792;38.854;-9.384;2023-06-22T13:39:11;8.23;;;3.22;;
60917;SDS011;46792;38.854;-9.384;2023-06-22T13:41:12;8.85;;;3.17;;